Time;durP1;ratioP1;P1;durP2;ratioP2;P2;SDS_P1;SDS_P2;PMS_P1;PMS_P2;Temp;Humidity;BMP_temperature;BMP_pressure;BME280_temperature;BME280_humidity;BME280_pressure;Samples;Min_cycle;Max_cycle;Signal;HPM_P1;HPM_P2
2021/11/29 00:00:25;;;;;;;11.30;5.50;;;;;;;0.55;99.01;99896.03;5046047;28;20376;-76
2021/11/29 00:02:57;;;;;;;9.10;5.28;;;;;;;0.50;98.78;99896.00;5047967;28;20057;-78
2021/11/29 00:05:26;;;;;;;12.50;6.07;;;;;;;0.41;99.16;99898.50;5044263;28;20052;-76
2021/11/29 00:07:53;;;;;;;11.80;5.35;;;;;;;0.38;99.22;99899.31;5039398;28;20428;-76
2021/11/29 00:10:20;;;;;;;12.52;5.57;;;;;;;0.34;99.34;99897.56;5045682;28;20045;-78
2021/11/29 00:12:47;;;;;;;12.70;5.85;;;;;;;0.35;99.32;99895.88;5043373;28;20052;-76
2021/11/29 00:15:14;;;;;;;13.07;5.72;;;;;;;0.37;99.23;99896.72;5043635;28;20064;-75
2021/11/29 00:17:41;;;;;;;14.63;5.55;;;;;;;0.38;99.20;99907.00;5042124;28;20098;-76
2021/11/29 00:20:10;;;;;;;11.93;6.82;;;;;;;0.35;98.67;99908.69;5035603;28;20132;-76
2021/11/29 00:22:38;;;;;;;18.63;6.13;;;;;;;0.30;98.67;99904.38;5039108;28;20063;-76
2021/11/29 00:25:06;;;;;;;16.67;5.80;;;;;;;0.23;99.21;99909.41;5042867;28;20053;-76
2021/11/29 00:27:33;;;;;;;11.25;5.40;;;;;;;0.29;99.11;99909.47;5043260;28;20064;-78
2021/11/29 00:30:00;;;;;;;11.43;6.35;;;;;;;0.30;99.15;99913.72;5038374;28;20049;-77
2021/11/29 00:32:26;;;;;;;13.07;5.25;;;;;;;0.21;99.16;99911.94;5043368;28;20555;-78
2021/11/29 00:34:53;;;;;;;9.98;5.30;;;;;;;0.21;98.87;99911.94;5040325;28;20056;-76
2021/11/29 00:37:19;;;;;;;11.80;5.95;;;;;;;0.24;98.55;99922.22;5041574;28;20060;-78
2021/11/29 00:39:47;;;;;;;16.75;5.55;;;;;;;0.24;98.85;99921.34;5038893;28;20060;-77
2021/11/29 00:42:13;;;;;;;12.15;5.28;;;;;;;0.28;98.36;99912.88;5042373;28;20056;-78
2021/11/29 00:44:40;;;;;;;11.50;4.90;;;;;;;0.25;97.97;99918.78;5045799;28;20053;-78
2021/11/29 00:47:06;;;;;;;12.02;5.45;;;;;;;0.19;98.08;99926.41;5042487;28;20057;-77
2021/11/29 00:49:33;;;;;;;8.55;4.53;;;;;;;0.18;98.38;99926.41;5039474;28;20412;-77
2021/11/29 00:51:59;;;;;;;12.38;5.03;;;;;;;0.17;98.14;99925.53;5041328;28;20343;-77
2021/11/29 00:54:26;;;;;;;10.95;5.18;;;;;;;0.18;97.96;99932.38;5037175;28;20053;-77
2021/11/29 00:56:54;;;;;;;13.82;5.68;;;;;;;0.16;97.87;99934.06;5042271;28;20060;-75
2021/11/29 00:59:20;;;;;;;10.00;4.82;;;;;;;0.13;98.14;99929.78;5037714;28;20068;-77
2021/11/29 01:01:47;;;;;;;15.82;5.68;;;;;;;0.19;97.99;99934.09;5044655;28;20059;-74
2021/11/29 01:04:13;;;;;;;13.93;5.60;;;;;;;0.17;98.24;99935.78;5043947;28;20064;-77
2021/11/29 01:06:40;;;;;;;9.55;4.78;;;;;;;0.14;98.07;99930.66;5045339;28;20056;-76
2021/11/29 01:09:06;;;;;;;12.77;5.00;;;;;;;0.13;97.74;99940.00;5039785;28;20047;-77
2021/11/29 01:11:33;;;;;;;12.75;4.97;;;;;;;0.14;97.82;99941.72;5043427;28;20072;-77
2021/11/29 01:14:01;;;;;;;15.90;4.82;;;;;;;0.13;97.61;99936.59;5043293;28;20057;-76
2021/11/29 01:16:27;;;;;;;8.93;4.47;;;;;;;0.14;97.63;99943.44;5042231;28;20513;-75
2021/11/29 01:18:54;;;;;;;12.63;5.18;;;;;;;0.09;97.59;99940.81;5048192;28;20045;-77
2021/11/29 01:21:20;;;;;;;13.10;4.95;;;;;;;0.11;97.67;99944.22;5043615;28;20062;-77
2021/11/29 01:23:47;;;;;;;11.73;4.63;;;;;;;0.10;97.97;99950.19;5043629;28;20045;-78
2021/11/29 01:26:14;;;;;;;11.05;4.82;;;;;;;0.08;97.45;99956.13;5045435;28;20045;-76
2021/11/29 01:28:40;;;;;;;20.13;5.40;;;;;;;0.06;97.63;99956.13;5046227;28;20057;-77
2021/11/29 01:31:09;;;;;;;11.38;4.30;;;;;;;0.06;97.47;99945.03;5044741;28;20080;-76
2021/11/29 01:33:36;;;;;;;11.52;5.18;;;;;;;0.10;97.74;99957.00;5043697;28;20094;-77
2021/11/29 01:36:03;;;;;;;9.98;4.45;;;;;;;0.05;97.56;99954.41;5042805;28;20056;-76
2021/11/29 01:38:29;;;;;;;10.95;4.47;;;;;;;0.04;97.70;99965.47;5042425;28;20045;-77
2021/11/29 01:40:56;;;;;;;13.07;4.53;;;;;;;0.05;97.52;99962.06;5042230;28;20095;-77
2021/11/29 01:43:23;;;;;;;12.25;3.72;;;;;;;-0.01;97.84;99967.97;5040949;28;20053;-77
2021/11/29 01:45:52;;;;;;;9.68;4.43;;;;;;;-0.02;98.19;99971.38;5043018;28;20060;-77
2021/11/29 01:48:20;;;;;;;18.75;5.75;;;;;;;-0.04;98.70;99972.19;5043385;28;20037;-77
2021/11/29 01:50:49;;;;;;;11.82;4.50;;;;;;;-0.03;98.61;99973.91;5040463;28;20049;-77
2021/11/29 01:53:17;;;;;;;15.73;5.90;;;;;;;-0.01;98.73;99970.53;5044452;28;20060;-77
2021/11/29 01:55:45;;;;;;;12.15;4.95;;;;;;;-0.04;98.83;99973.03;5049750;28;20516;-77
2021/11/29 01:58:12;;;;;;;9.98;5.03;;;;;;;-0.08;99.38;99976.44;5052225;28;20045;-75
2021/11/29 02:00:45;;;;;;;10.82;5.07;;;;;;;-0.04;99.39;99983.28;5044001;28;20052;-76
2021/11/29 02:03:12;;;;;;;8.88;3.50;;;;;;;-0.03;99.40;99973.91;5037826;28;20228;-76
2021/11/29 02:05:40;;;;;;;11.48;4.07;;;;;;;-0.09;99.51;99982.38;5045201;28;20046;-78
2021/11/29 02:08:07;;;;;;;7.05;3.67;;;;;;;-0.03;99.56;99979.03;5045890;28;20055;-78
2021/11/29 02:10:35;;;;;;;10.23;3.83;;;;;;;-0.02;99.85;99978.19;5044645;28;20109;-77
2021/11/29 02:13:02;;;;;;;17.90;3.85;;;;;;;0.01;99.87;99977.38;5046763;28;20075;-78
2021/11/29 02:15:28;;;;;;;13.02;4.05;;;;;;;0.04;99.42;99980.81;5047972;28;20061;-78
2021/11/29 02:17:57;;;;;;;8.50;3.65;;;;;;;0.04;99.71;99979.97;5043059;28;20053;-78
2021/11/29 02:20:23;;;;;;;12.40;3.78;;;;;;;0.06;99.51;99976.59;5042642;28;20497;-77
2021/11/29 02:22:51;;;;;;;9.95;3.83;;;;;;;0.06;99.64;99985.94;5043253;28;20045;-78
2021/11/29 02:25:19;;;;;;;10.85;4.75;;;;;;;0.03;99.59;99994.44;5047771;28;20048;-78
2021/11/29 02:27:48;;;;;;;8.77;3.67;;;;;;;0.01;99.56;99987.59;5053523;28;20072;-77
2021/11/29 02:30:15;;;;;;;12.13;3.50;;;;;;;0.06;99.99;99991.94;5039116;28;20052;-78
2021/11/29 02:32:42;;;;;;;10.30;3.85;;;;;;;0.04;99.79;99991.03;5042939;28;20052;-78
2021/11/29 02:35:09;;;;;;;12.90;4.13;;;;;;;0.02;100.00;99986.75;5044511;28;20536;-78
2021/11/29 02:37:36;;;;;;;12.00;4.43;;;;;;;0.07;100.00;99992.75;5045698;28;20046;-78
2021/11/29 02:40:04;;;;;;;11.23;3.65;;;;;;;-0.01;100.00;99993.53;5039566;28;20049;-79
2021/11/29 02:42:31;;;;;;;11.60;4.00;;;;;;;0.05;100.00;99986.81;5048281;28;20053;-79
2021/11/29 02:44:57;;;;;;;9.00;4.03;;;;;;;-0.01;100.00;99980.75;5048803;28;20244;-78
2021/11/29 02:47:24;;;;;;;7.35;3.50;;;;;;;0.06;99.95;99984.25;5043188;28;20048;-78
2021/11/29 02:49:51;;;;;;;9.80;3.28;;;;;;;-0.02;100.00;99983.31;5046983;28;20052;-79
2021/11/29 02:52:19;;;;;;;8.20;3.28;;;;;;;-0.03;100.00;99984.16;5042214;28;20045;-79
2021/11/29 02:54:46;;;;;;;15.23;3.58;;;;;;;-0.03;100.00;99990.09;5044235;28;20500;-78
2021/11/29 02:57:16;;;;;;;13.68;3.90;;;;;;;-0.05;100.00;99989.22;5046991;28;20049;-78
2021/11/29 02:59:43;;;;;;;8.40;3.50;;;;;;;-0.09;100.00;99987.47;5043929;28;20053;-78
2021/11/29 03:02:12;;;;;;;9.95;3.25;;;;;;;-0.10;100.00;99988.31;5039156;28;20052;-78
2021/11/29 03:04:40;;;;;;;8.27;2.90;;;;;;;-0.09;100.00;99994.28;5039604;28;20045;-79
2021/11/29 03:07:07;;;;;;;10.38;3.47;;;;;;;-0.05;100.00;99994.34;5047806;28;20041;-77
2021/11/29 03:09:34;;;;;;;7.70;3.30;;;;;;;-0.08;100.00;99998.56;5050139;28;20048;-77
2021/11/29 03:12:02;;;;;;;9.60;4.32;;;;;;;-0.10;100.00;100003.66;5043459;28;20508;-76
2021/11/29 03:14:29;;;;;;;8.55;3.13;;;;;;;-0.11;100.00;99998.53;5041480;28;20045;-80
2021/11/29 03:16:57;;;;;;;12.05;3.78;;;;;;;-0.08;100.00;100004.53;5045298;28;20049;-78
2021/11/29 03:19:29;;;;;;;9.35;3.78;;;;;;;-0.12;99.87;100005.34;5046264;28;20435;-78
2021/11/29 03:21:55;;;;;;;7.10;2.88;;;;;;;-0.13;100.00;100011.28;5042267;28;20104;-77
2021/11/29 03:24:22;;;;;;;9.68;3.20;;;;;;;-0.13;100.00;100007.88;5041251;28;20049;-78
2021/11/29 03:26:48;;;;;;;7.22;3.40;;;;;;;-0.11;100.00;100003.66;5046070;28;20152;-81
2021/11/29 03:29:17;;;;;;;8.38;2.75;;;;;;;-0.15;100.00;100010.44;5045156;28;20048;-78
2021/11/29 03:31:46;;;;;;;8.13;3.20;;;;;;;-0.10;100.00;100011.31;5050579;28;20526;-78
2021/11/29 03:34:14;;;;;;;7.53;2.88;;;;;;;-0.12;100.00;100007.03;5042846;28;20076;-78
2021/11/29 03:36:44;;;;;;;9.18;2.83;;;;;;;-0.18;100.00;100016.34;5046880;28;20053;-77
2021/11/29 03:39:13;;;;;;;7.03;3.10;;;;;;;-0.19;100.00;100011.22;5044459;28;20038;-78
2021/11/29 03:41:41;;;;;;;6.65;2.70;;;;;;;-0.17;100.00;100006.97;5041076;28;20063;-78
2021/11/29 03:44:08;;;;;;;7.68;2.67;;;;;;;-0.10;100.00;100007.94;5045354;28;20048;-78
2021/11/29 03:46:35;;;;;;;10.25;2.75;;;;;;;-0.07;100.00;100007.94;5051798;28;20053;-78
2021/11/29 03:49:03;;;;;;;6.20;2.20;;;;;;;-0.04;100.00;100008.84;5044985;28;20382;-78
2021/11/29 03:51:29;;;;;;;6.22;2.58;;;;;;;-0.01;100.00;100014.00;5043605;28;20045;-77
2021/11/29 03:53:56;;;;;;;8.27;2.53;;;;;;;0.03;100.00;100014.03;5041200;28;20087;-78
2021/11/29 03:56:22;;;;;;;4.88;2.00;;;;;;;0.07;100.00;100020.91;5045152;28;20056;-79
2021/11/29 03:58:49;;;;;;;4.20;1.88;;;;;;;0.09;100.00;100017.53;5051738;28;20041;-78
2021/11/29 04:01:15;;;;;;;6.43;2.92;;;;;;;0.14;100.00;100027.81;5047799;28;20048;-78
2021/11/29 04:03:42;;;;;;;10.68;2.28;;;;;;;0.19;100.00;100030.44;5049214;28;20052;-78
2021/11/29 04:06:10;;;;;;;6.78;2.00;;;;;;;0.15;100.00;100026.94;5043464;28;20504;-78
2021/11/29 04:08:36;;;;;;;6.20;2.20;;;;;;;0.20;100.00;100025.31;5046114;28;20045;-78
2021/11/29 04:11:03;;;;;;;5.53;2.10;;;;;;;0.18;100.00;100033.81;5044160;28;20106;-79
2021/11/29 04:13:30;;;;;;;7.45;2.00;;;;;;;0.15;100.00;100039.75;5047237;28;20106;-79
2021/11/29 04:15:56;;;;;;;4.50;1.90;;;;;;;0.15;100.00;100034.63;5046669;28;20053;-80
2021/11/29 04:18:23;;;;;;;9.18;2.70;;;;;;;0.15;100.00;100045.72;5044254;28;20049;-79
2021/11/29 04:20:50;;;;;;;6.43;1.98;;;;;;;0.22;100.00;100050.91;5044929;28;20045;-76
2021/11/29 04:23:17;;;;;;;4.07;1.80;;;;;;;0.23;100.00;100055.19;5045788;28;20057;-79
2021/11/29 04:25:47;;;;;;;5.63;2.08;;;;;;;0.22;100.00;100058.56;5044693;28;20056;-79
2021/11/29 04:28:14;;;;;;;7.28;2.50;;;;;;;0.22;100.00;100051.78;5052584;28;20044;-78
2021/11/29 04:30:41;;;;;;;7.68;2.15;;;;;;;0.30;100.00;100055.28;5044626;28;20049;-79
2021/11/29 04:33:07;;;;;;;6.65;1.90;;;;;;;0.22;100.00;100063.69;5045865;28;20045;-79
2021/11/29 04:35:34;;;;;;;3.33;1.60;;;;;;;0.20;100.00;100067.97;5044574;28;20048;-78
2021/11/29 04:38:01;;;;;;;9.13;2.05;;;;;;;0.28;100.00;100067.19;5045780;28;20053;-80
2021/11/29 04:40:29;;;;;;;4.47;1.73;;;;;;;0.25;100.00;100064.59;5047761;28;20045;-76
2021/11/29 04:42:55;;;;;;;6.93;2.00;;;;;;;0.27;100.00;100068.03;5048525;28;20103;-78
2021/11/29 04:45:22;;;;;;;7.10;2.50;;;;;;;0.29;100.00;100065.50;5048298;28;20053;-78
2021/11/29 04:47:48;;;;;;;7.13;1.65;;;;;;;0.35;100.00;100077.50;5044883;28;20213;-79
2021/11/29 04:50:15;;;;;;;6.75;2.20;;;;;;;0.27;100.00;100070.59;5052214;28;20037;-79
2021/11/29 04:52:42;;;;;;;5.95;1.85;;;;;;;0.28;100.00;100069.75;5045543;28;20055;-78
2021/11/29 04:55:09;;;;;;;5.30;1.70;;;;;;;0.26;100.00;100068.88;5042937;28;20064;-79
2021/11/29 04:57:37;;;;;;;5.97;1.90;;;;;;;0.21;100.00;100077.31;5046205;28;20442;-79
2021/11/29 05:00:05;;;;;;;4.40;1.77;;;;;;;0.19;100.00;100073.91;5045869;28;20409;-78
2021/11/29 05:02:32;;;;;;;6.72;2.17;;;;;;;0.20;100.00;100075.63;5045915;28;20069;-79
2021/11/29 05:04:59;;;;;;;5.18;2.00;;;;;;;0.22;100.00;100081.59;5046130;28;20052;-78
2021/11/29 05:07:25;;;;;;;7.05;2.00;;;;;;;0.21;100.00;100078.19;5053827;28;20072;-79
2021/11/29 05:09:52;;;;;;;10.38;3.00;;;;;;;0.28;100.00;100082.53;5048889;28;20049;-79
2021/11/29 05:12:19;;;;;;;8.27;1.80;;;;;;;0.31;100.00;100081.72;5047951;28;20049;-80
2021/11/29 05:14:48;;;;;;;5.75;1.90;;;;;;;0.28;100.00;100087.66;5049179;28;20059;-79
2021/11/29 05:17:16;;;;;;;4.47;2.00;;;;;;;0.34;100.00;100080.91;5045594;28;20100;-78
2021/11/29 05:19:42;;;;;;;4.80;1.98;;;;;;;0.28;100.00;100092.78;5049182;28;20045;-79
2021/11/29 05:22:09;;;;;;;5.70;1.80;;;;;;;0.25;100.00;100087.59;5048532;28;20041;-79
2021/11/29 05:24:36;;;;;;;6.10;2.05;;;;;;;0.21;100.00;100090.09;5044411;28;20049;-79
2021/11/29 05:27:04;;;;;;;5.07;2.10;;;;;;;0.20;100.00;100101.19;5049435;28;20080;-77
2021/11/29 05:29:31;;;;;;;7.50;2.17;;;;;;;0.25;100.00;100102.94;5052056;28;20052;-79
2021/11/29 05:31:59;;;;;;;5.35;1.98;;;;;;;0.25;100.00;100112.34;5050460;28;20055;-78
2021/11/29 05:34:25;;;;;;;5.15;2.33;;;;;;;0.22;100.00;100108.06;5043042;28;20056;-78
2021/11/29 05:36:52;;;;;;;10.13;1.80;;;;;;;0.29;100.00;100120.06;5050821;28;20048;-77
2021/11/29 05:39:18;;;;;;;5.07;2.10;;;;;;;0.33;100.00;100120.97;5043372;28;20041;-77
2021/11/29 05:41:46;;;;;;;6.15;2.15;;;;;;;0.36;100.00;100115.00;5047273;28;20061;-79
2021/11/29 05:44:14;;;;;;;6.18;2.10;;;;;;;0.38;100.00;100124.44;5039485;28;20049;-78
2021/11/29 05:46:40;;;;;;;6.00;1.70;;;;;;;0.37;100.00;100127.84;5039572;28;20054;-78
2021/11/29 05:49:08;;;;;;;2.88;1.58;;;;;;;0.41;100.00;100124.47;5046552;28;20041;-78
2021/11/29 05:51:35;;;;;;;9.90;2.10;;;;;;;0.41;100.00;100128.75;5044150;28;20049;-77
2021/11/29 05:54:01;;;;;;;3.13;1.60;;;;;;;0.47;100.00;100131.38;5036859;28;20049;-78
2021/11/29 05:56:28;;;;;;;5.10;1.60;;;;;;;0.47;100.00;100131.38;5045578;28;20075;-78
2021/11/29 05:58:54;;;;;;;3.65;1.60;;;;;;;0.50;100.00;100133.13;5046619;28;20045;-75
2021/11/29 06:01:23;;;;;;;5.93;1.77;;;;;;;0.46;100.00;100124.53;5045178;28;20057;-76
2021/11/29 06:03:49;;;;;;;11.90;2.22;;;;;;;0.54;100.00;100122.94;5043225;28;20075;-76
2021/11/29 06:06:18;;;;;;;3.33;1.67;;;;;;;0.53;100.00;100122.91;5042781;28;20044;-77
2021/11/29 06:08:44;;;;;;;6.70;1.70;;;;;;;0.54;100.00;100125.50;5041414;28;23104;-77
2021/11/29 06:11:11;;;;;;;4.50;1.70;;;;;;;0.59;100.00;100123.00;5042881;28;20704;-77
2021/11/29 06:13:37;;;;;;;5.72;1.60;;;;;;;0.65;100.00;100132.44;5038528;28;20045;-76
2021/11/29 06:16:05;;;;;;;5.63;1.60;;;;;;;0.61;100.00;100134.97;5043959;28;20064;-76
2021/11/29 06:18:31;;;;;;;7.65;1.95;;;;;;;0.56;100.00;100139.16;5040075;28;20060;-77
2021/11/29 06:20:58;;;;;;;5.95;1.88;;;;;;;0.58;100.00;100141.75;5039853;28;20045;-77
2021/11/29 06:23:25;;;;;;;6.50;1.73;;;;;;;0.68;100.00;100141.00;5041102;28;20143;-77
2021/11/29 06:25:52;;;;;;;4.43;1.77;;;;;;;0.68;100.00;100153.81;5045244;28;20704;-76
2021/11/29 06:28:18;;;;;;;5.45;2.25;;;;;;;0.71;100.00;100150.41;5042205;28;20045;-77
2021/11/29 06:30:45;;;;;;;7.22;2.20;;;;;;;0.74;100.00;100151.31;5040031;28;20057;-78
2021/11/29 06:33:11;;;;;;;9.63;2.70;;;;;;;0.70;100.00;100146.13;5037230;28;20052;-76
2021/11/29 06:35:38;;;;;;;5.07;2.10;;;;;;;0.61;100.00;100152.88;5078954;22;20060;-75
2021/11/29 06:38:06;;;;;;;5.45;2.35;;;;;;;0.68;100.00;100158.06;5057221;28;20052;-75
2021/11/29 06:40:35;;;;;;;5.28;2.05;;;;;;;0.71;100.00;100147.88;5063731;28;20052;-75
2021/11/29 06:43:02;;;;;;;3.15;1.50;;;;;;;0.66;100.00;100139.25;5066027;28;20518;-75
2021/11/29 06:45:28;;;;;;;3.15;1.75;;;;;;;0.66;100.00;100154.63;5065678;28;20044;-76
2021/11/29 06:47:56;;;;;;;12.50;2.17;;;;;;;0.58;100.00;100151.97;5064859;28;20778;-76
2021/11/29 06:50:23;;;;;;;10.65;2.47;;;;;;;0.60;100.00;100163.94;5063502;28;20040;-76
2021/11/29 06:52:50;;;;;;;6.22;2.03;;;;;;;0.66;100.00;100159.72;5063911;28;22679;-76
2021/11/29 06:55:20;;;;;;;5.70;2.03;;;;;;;0.68;100.00;100164.06;5065968;28;20056;-76
2021/11/29 06:57:48;;;;;;;6.50;2.20;;;;;;;0.69;100.00;100162.34;5070635;28;21010;-75
2021/11/29 07:00:20;;;;;;;5.72;2.47;;;;;;;0.68;100.00;100168.28;5068108;28;20059;-75
2021/11/29 07:02:46;;;;;;;5.03;2.10;;;;;;;0.61;100.00;100168.22;5061825;28;20688;-76
2021/11/29 07:05:14;;;;;;;5.78;2.40;;;;;;;0.61;100.00;100178.47;5058676;28;20048;-76
2021/11/29 07:07:40;;;;;;;6.10;2.10;;;;;;;0.61;100.00;100180.16;5059753;28;20135;-76
2021/11/29 07:10:08;;;;;;;9.98;3.00;;;;;;;0.58;100.00;100172.47;5065171;28;20040;-75
2021/11/29 07:12:35;;;;;;;9.43;2.15;;;;;;;0.69;100.00;100180.25;5062612;28;20052;-76
2021/11/29 07:15:03;;;;;;;6.18;2.40;;;;;;;0.63;100.00;100186.16;5065199;28;20056;-75
2021/11/29 07:17:30;;;;;;;7.70;2.40;;;;;;;0.67;100.00;100184.50;5065316;28;20052;-76
2021/11/29 07:19:57;;;;;;;5.57;2.17;;;;;;;0.72;100.00;100188.81;5064371;28;20053;-75
2021/11/29 07:22:24;;;;;;;6.68;2.40;;;;;;;0.68;100.00;100197.31;5064004;28;20404;-75
2021/11/29 07:24:52;;;;;;;5.65;2.58;;;;;;;0.73;100.00;100194.81;5064302;28;20048;-76
2021/11/29 07:27:19;;;;;;;8.15;2.97;;;;;;;0.66;100.00;100193.00;5065001;28;20045;-75
2021/11/29 07:29:46;;;;;;;6.90;2.85;;;;;;;0.58;100.00;100204.00;5067025;28;20041;-76
2021/11/29 07:32:14;;;;;;;5.75;2.80;;;;;;;0.66;100.00;100203.25;5066273;28;20060;-73
2021/11/29 07:34:40;;;;;;;5.57;3.40;;;;;;;0.63;100.00;100201.50;5069130;28;20412;-73
2021/11/29 07:37:07;;;;;;;6.93;3.22;;;;;;;0.58;100.00;100198.91;5067458;28;20514;-73
2021/11/29 07:39:33;;;;;;;7.70;2.55;;;;;;;0.58;100.00;100210.84;5065412;28;20045;-73
2021/11/29 07:42:00;;;;;;;7.40;2.53;;;;;;;0.63;100.00;100204.06;5061374;28;20063;-73
2021/11/29 07:44:26;;;;;;;8.32;2.85;;;;;;;0.70;100.00;100202.44;5066825;28;20135;-75
2021/11/29 07:46:53;;;;;;;8.80;2.50;;;;;;;0.68;100.00;100201.56;5066936;28;20767;-74
2021/11/29 07:49:21;;;;;;;7.90;2.40;;;;;;;0.66;100.00;100200.69;5066666;28;20044;-74
2021/11/29 07:51:47;;;;;;;8.20;2.60;;;;;;;0.67;100.00;100202.41;5071695;28;20041;-74
2021/11/29 07:54:13;;;;;;;5.40;2.42;;;;;;;0.66;100.00;100205.81;5067682;28;20041;-73
2021/11/29 07:56:40;;;;;;;10.80;2.70;;;;;;;0.68;100.00;100207.56;5071170;28;20814;-73
2021/11/29 07:59:06;;;;;;;5.75;2.70;;;;;;;0.73;100.00;100220.41;5062510;28;20052;-74
2021/11/29 08:01:33;;;;;;;10.27;2.55;;;;;;;0.71;100.00;100214.41;5059366;28;20047;-75
2021/11/29 08:03:59;;;;;;;7.70;3.05;;;;;;;0.67;100.00;100226.31;5059980;28;20053;-74
2021/11/29 08:06:27;;;;;;;5.30;2.22;;;;;;;0.67;100.00;100226.31;5065372;28;20060;-74
2021/11/29 08:08:54;;;;;;;7.18;2.47;;;;;;;0.70;100.00;100220.38;5061940;28;20044;-72
2021/11/29 08:11:20;;;;;;;6.05;3.30;;;;;;;0.70;100.00;100213.53;5064251;28;20087;-72
2021/11/29 08:13:47;;;;;;;9.00;3.13;;;;;;;0.74;100.00;100225.53;5063489;28;20136;-74
2021/11/29 08:16:14;;;;;;;5.30;2.40;;;;;;;0.74;100.00;100233.22;5063305;28;20056;-74
2021/11/29 08:18:40;;;;;;;4.13;2.10;;;;;;;0.83;100.00;100229.06;5065477;28;20098;-74
2021/11/29 08:21:07;;;;;;;6.10;2.33;;;;;;;0.90;100.00;100231.72;5068347;28;20052;-73
2021/11/29 08:23:35;;;;;;;8.68;2.88;;;;;;;0.85;100.00;100240.19;5061846;28;20052;-74
2021/11/29 08:26:02;;;;;;;7.32;2.90;;;;;;;0.91;100.00;100233.44;5065928;28;20041;-72
2021/11/29 08:28:29;;;;;;;4.50;2.00;;;;;;;0.96;100.00;100241.19;5062294;28;20574;-73
2021/11/29 08:30:55;;;;;;;5.65;2.35;;;;;;;0.97;100.00;100232.66;5060980;28;21023;-73
2021/11/29 08:33:22;;;;;;;7.00;2.65;;;;;;;1.03;100.00;100237.00;5062648;28;20063;-71
2021/11/29 08:35:48;;;;;;;9.57;2.60;;;;;;;1.07;100.00;100241.28;5060245;28;20139;-74
2021/11/29 08:38:16;;;;;;;6.78;3.10;;;;;;;1.12;100.00;100238.78;5063385;28;20048;-75
2021/11/29 08:40:45;;;;;;;4.75;2.60;;;;;;;1.08;100.00;100235.34;5060299;28;20049;-75
2021/11/29 08:43:16;;;;;;;6.20;2.45;;;;;;;1.17;100.00;100244.84;5062645;28;20536;-76
2021/11/29 08:45:43;;;;;;;4.68;2.22;;;;;;;1.15;100.00;100237.09;5062883;28;20064;-74
2021/11/29 08:48:11;;;;;;;9.43;2.45;;;;;;;1.14;100.00;100242.22;5068490;28;20530;-71
2021/11/29 08:50:41;;;;;;;9.27;2.47;;;;;;;1.15;100.00;100244.78;5065345;28;20037;-74
2021/11/29 08:53:10;;;;;;;5.13;2.30;;;;;;;1.21;100.00;100251.69;5069159;28;20048;-73
2021/11/29 08:55:38;;;;;;;8.60;2.60;;;;;;;1.28;100.00;100238.13;5057872;28;20060;-75
2021/11/29 08:58:07;;;;;;;9.18;2.75;;;;;;;1.34;100.00;100253.56;5062087;28;20052;-73
2021/11/29 09:00:35;;;;;;;7.28;2.40;;;;;;;1.35;100.00;100254.41;5066691;28;20041;-76
2021/11/29 09:03:04;;;;;;;5.68;2.40;;;;;;;1.39;100.00;100261.28;5068433;28;20052;-74
2021/11/29 09:05:30;;;;;;;10.25;3.45;;;;;;;1.43;100.00;100264.75;5069779;28;20128;-75
2021/11/29 09:07:57;;;;;;;9.00;2.63;;;;;;;1.49;100.00;100268.22;5064114;28;20060;-75
2021/11/29 09:10:23;;;;;;;6.68;2.55;;;;;;;1.46;100.00;100268.19;5063227;28;20052;-73
2021/11/29 09:12:50;;;;;;;9.32;3.10;;;;;;;1.55;100.00;100275.13;5068600;28;20097;-75
2021/11/29 09:15:20;;;;;;;6.90;2.60;;;;;;;1.54;100.00;100270.84;5063426;28;20511;-75
2021/11/29 09:17:47;;;;;;;5.63;2.53;;;;;;;1.49;100.00;100283.63;5063170;28;20064;-75
2021/11/29 09:20:17;;;;;;;10.20;2.80;;;;;;;1.53;100.00;100285.38;5064162;28;20048;-75
2021/11/29 09:22:45;;;;;;;7.20;2.42;;;;;;;1.52;100.00;100295.59;5066121;28;20058;-77
2021/11/29 09:25:12;;;;;;;5.28;2.30;;;;;;;1.53;100.00;100305.00;5063295;28;20052;-75
2021/11/29 09:27:39;;;;;;;5.63;2.50;;;;;;;1.58;100.00;100313.63;5059228;28;20079;-76
2021/11/29 09:30:08;;;;;;;6.55;2.45;;;;;;;1.61;100.00;100318.75;5061889;28;20052;-75
2021/11/29 09:32:37;;;;;;;7.45;2.45;;;;;;;1.65;100.00;100317.97;5065583;28;20049;-77
2021/11/29 09:35:06;;;;;;;12.27;2.20;;;;;;;1.61;100.00;100323.03;5055912;28;20064;-74
2021/11/29 09:37:32;;;;;;;9.48;2.38;;;;;;;1.62;100.00;100330.75;5062658;28;20075;-76
2021/11/29 09:39:59;;;;;;;6.60;2.42;;;;;;;1.64;100.00;100333.34;5066076;28;20048;-77
2021/11/29 09:42:25;;;;;;;5.13;2.45;;;;;;;1.71;100.00;100340.25;5063135;28;20048;-77
2021/11/29 09:44:53;;;;;;;5.72;2.60;;;;;;;1.69;100.00;100336.78;5067155;28;20048;-77
2021/11/29 09:47:19;;;;;;;6.35;2.60;;;;;;;1.74;100.00;100345.41;5064114;28;20045;-76
2021/11/29 09:49:47;;;;;;;6.60;2.28;;;;;;;1.80;100.00;100345.47;5065780;28;20053;-78
2021/11/29 09:52:14;;;;;;;8.80;2.53;;;;;;;1.82;100.00;100355.72;5063063;28;22453;-74
2021/11/29 09:54:42;;;;;;;5.70;2.60;;;;;;;1.85;100.00;100358.34;5061601;28;20048;-76
2021/11/29 09:57:09;;;;;;;10.20;2.60;;;;;;;1.87;100.00;100354.09;5063039;28;20048;-76
2021/11/29 09:59:35;;;;;;;9.60;2.30;;;;;;;1.88;100.00;100357.50;5057492;28;20064;-76
2021/11/29 10:02:07;;;;;;;7.90;2.60;;;;;;;1.89;100.00;100361.78;5062789;28;20430;-76
2021/11/29 10:04:33;;;;;;;9.07;2.65;;;;;;;1.91;100.00;100367.78;5060864;28;20503;-76
2021/11/29 10:07:03;;;;;;;12.50;2.55;;;;;;;2.03;100.00;100365.38;5059440;28;20052;-74
2021/11/29 10:09:34;;;;;;;9.35;2.55;;;;;;;2.11;100.00;100363.72;5061732;28;20503;-76
2021/11/29 10:12:22;;;;;;;12.00;3.20;;;;;;;2.14;100.00;100363.75;5064423;28;20500;-77
2021/11/29 10:15:11;;;;;;;8.50;2.65;;;;;;;2.29;100.00;100372.44;5061755;28;20889;-75
2021/11/29 10:17:37;;;;;;;5.55;2.35;;;;;;;2.38;100.00;100363.97;5055726;28;20048;-75
2021/11/29 10:20:05;;;;;;;9.50;2.25;;;;;;;2.34;100.00;100363.09;5054637;28;20053;-75
2021/11/29 10:22:34;;;;;;;11.82;2.58;;;;;;;2.42;100.00;100366.56;5061803;28;20051;-76
2021/11/29 10:25:14;;;;;;;8.32;2.50;;;;;;;2.45;100.00;100368.28;5065154;28;20136;-74
2021/11/29 10:27:42;;;;;;;11.15;2.50;;;;;;;2.57;100.00;100370.09;5059555;28;20041;-75
2021/11/29 10:30:09;;;;;;;5.15;2.50;;;;;;;2.57;100.00;100364.94;5059892;28;20052;-75
2021/11/29 10:32:39;;;;;;;6.55;2.10;;;;;;;2.69;100.00;100372.75;5060699;28;20420;-74
2021/11/29 10:35:08;;;;;;;9.63;2.47;;;;;;;2.67;100.00;100371.88;5060789;28;20068;-74
2021/11/29 10:37:38;;;;;;;8.57;2.70;;;;;;;2.74;100.00;100377.91;5059552;28;20396;-74
2021/11/29 10:40:07;;;;;;;7.78;2.47;;;;;;;2.80;100.00;100367.66;5060638;28;20127;-74
2021/11/29 10:42:35;;;;;;;8.50;2.80;;;;;;;2.78;100.00;100366.81;5067310;28;20138;-72
2021/11/29 10:45:01;;;;;;;6.82;2.17;;;;;;;2.76;100.00;100366.78;5061851;28;20052;-73
2021/11/29 10:47:32;;;;;;;13.38;2.78;;;;;;;2.77;100.00;100381.38;5062300;28;20045;-74
2021/11/29 10:49:59;;;;;;;9.23;2.50;;;;;;;2.82;100.00;100376.25;5061156;28;20053;-75
2021/11/29 10:52:27;;;;;;;8.85;2.22;;;;;;;2.81;100.00;100382.25;5061489;28;20044;-74
2021/11/29 10:54:57;;;;;;;6.50;2.28;;;;;;;2.84;100.00;100384.00;5063593;28;20636;-75
2021/11/29 10:57:26;;;;;;;6.25;2.78;;;;;;;2.80;100.00;100383.97;5065818;28;20056;-73
2021/11/29 10:59:54;;;;;;;6.93;2.50;;;;;;;2.86;100.00;100393.41;5062838;28;20052;-74
2021/11/29 11:02:23;;;;;;;11.85;2.17;;;;;;;2.91;100.00;100389.16;5059608;28;20037;-74
2021/11/29 11:05:02;;;;;;;6.53;2.08;;;;;;;2.94;100.00;100396.06;5064641;28;20049;-74
2021/11/29 11:07:32;;;;;;;5.82;2.20;;;;;;;3.00;100.00;100398.66;5065517;28;20477;-73
2021/11/29 11:10:02;;;;;;;7.30;1.98;;;;;;;3.02;100.00;100389.25;5064503;28;20068;-73
2021/11/29 11:12:31;;;;;;;9.68;2.55;;;;;;;3.08;100.00;100393.56;5059347;28;20045;-74
2021/11/29 11:15:08;;;;;;;11.48;2.05;;;;;;;3.10;100.00;100397.84;5061273;28;20052;-74
2021/11/29 11:17:34;;;;;;;4.75;1.73;;;;;;;3.12;100.00;100400.41;5061368;28;20523;-75
2021/11/29 11:20:04;;;;;;;9.23;2.22;;;;;;;3.20;100.00;100397.91;5059629;28;20060;-74
2021/11/29 11:22:32;;;;;;;8.48;2.35;;;;;;;3.17;100.00;100403.91;5058273;28;20045;-75
2021/11/29 11:25:03;;;;;;;6.35;1.75;;;;;;;3.28;100.00;100401.38;5058206;28;20408;-72
2021/11/29 11:27:31;;;;;;;11.02;2.28;;;;;;;3.32;100.00;100405.69;5057037;28;20052;-73